Time;durP1;ratioP1;P1;durP2;ratioP2;P2;SDS_P1;SDS_P2;PMS_P1;PMS_P2;Temp;Humidity;BMP_temperature;BMP_pressure;BME280_temperature;BME280_humidity;BME280_pressure;Samples;Min_cycle;Max_cycle;Signal;HPM_P1;HPM_P2
2022/07/02 00:00:54;;;;;;;6.10;2.25;;;15.90;94.60;;;;;;5096234;28;20083;-34
2022/07/02 00:03:24;;;;;;;8.15;2.38;;;15.90;94.40;;;;;;5112229;28;20055;-33
2022/07/02 00:05:55;;;;;;;8.02;2.67;;;15.90;94.60;;;;;;5097724;28;20090;-33
2022/07/02 00:08:22;;;;;;;5.72;2.30;;;15.80;94.80;;;;;;5113952;28;20083;-34
2022/07/02 00:10:48;;;;;;;8.95;2.00;;;15.80;94.80;;;;;;5101006;28;20127;-33
2022/07/02 00:13:17;;;;;;;4.78;2.20;;;15.80;94.80;;;;;;5095911;28;20090;-33
2022/07/02 00:15:44;;;;;;;6.55;2.13;;;15.70;94.70;;;;;;5094604;28;20452;-34
2022/07/02 00:18:10;;;;;;;6.43;1.75;;;15.70;94.90;;;;;;5103700;28;20055;-33
2022/07/02 00:20:38;;;;;;;4.55;1.83;;;15.70;94.80;;;;;;5111740;28;20134;-33
2022/07/02 00:23:04;;;;;;;8.95;2.50;;;15.70;94.60;;;;;;5114790;28;20082;-33
2022/07/02 00:25:32;;;;;;;5.15;2.10;;;15.70;95.00;;;;;;5114876;28;20083;-33
2022/07/02 00:27:59;;;;;;;4.65;2.30;;;15.70;95.50;;;;;;5100263;28;20079;-33
2022/07/02 00:30:27;;;;;;;7.82;2.17;;;15.60;95.70;;;;;;5109961;28;20096;-33
2022/07/02 00:32:54;;;;;;;10.80;2.30;;;15.50;95.60;;;;;;5114687;28;20138;-34
2022/07/02 00:35:20;;;;;;;9.25;2.58;;;15.50;95.90;;;;;;5112659;28;20056;-33
2022/07/02 00:37:47;;;;;;;3.78;2.00;;;15.40;96.20;;;;;;5114829;28;20112;-34
2022/07/02 00:40:14;;;;;;;10.85;2.58;;;15.40;96.10;;;;;;5114242;28;20077;-33
2022/07/02 00:42:41;;;;;;;6.60;2.22;;;15.40;96.30;;;;;;5115817;28;20112;-34
2022/07/02 00:45:07;;;;;;;6.60;2.70;;;15.30;96.60;;;;;;5101137;27;20056;-34
2022/07/02 00:47:36;;;;;;;4.13;1.98;;;15.30;96.80;;;;;;5095347;28;20131;-33
2022/07/02 00:50:04;;;;;;;7.97;2.60;;;15.20;96.40;;;;;;5111444;28;20055;-33
2022/07/02 00:52:30;;;;;;;5.47;2.22;;;15.20;96.70;;;;;;5114399;28;20051;-33
2022/07/02 00:54:57;;;;;;;9.98;3.05;;;15.20;96.80;;;;;;5114062;28;20130;-34
2022/07/02 00:57:24;;;;;;;9.98;3.00;;;15.20;97.00;;;;;;5112834;28;20090;-33
2022/07/02 00:59:51;;;;;;;9.73;2.83;;;15.20;97.00;;;;;;5114381;28;20134;-33
2022/07/02 01:02:18;;;;;;;8.48;2.70;;;15.20;97.30;;;;;;5114299;28;20046;-33
2022/07/02 01:04:46;;;;;;;6.78;2.83;;;15.10;97.50;;;;;;5114186;28;20078;-34
2022/07/02 01:07:13;;;;;;;3.35;2.25;;;15.10;97.50;;;;;;5114162;28;20051;-34
2022/07/02 01:12:25;;;;;;;6.55;2.30;;;15.10;97.20;;;;;;5094731;28;20044;-33
2022/07/02 01:14:52;;;;;;;7.85;3.00;;;15.10;96.90;;;;;;5096386;28;20055;-34
2022/07/02 01:17:18;;;;;;;6.50;2.78;;;15.10;97.00;;;;;;5094578;28;20094;-33
2022/07/02 01:19:47;;;;;;;6.18;2.92;;;15.10;97.40;;;;;;5094122;28;20079;-34
2022/07/02 01:22:18;;;;;;;6.85;2.85;;;15.00;97.50;;;;;;5094896;28;20076;-33
2022/07/02 01:24:46;;;;;;;5.18;2.28;;;15.00;97.60;;;;;;5113572;28;20131;-33
2022/07/02 01:27:13;;;;;;;6.50;2.20;;;15.00;97.20;;;;;;5113789;28;20063;-34
2022/07/02 01:29:40;;;;;;;6.55;2.97;;;15.00;97.00;;;;;;5110096;28;20652;-34
2022/07/02 01:32:07;;;;;;;4.75;2.30;;;15.00;96.90;;;;;;5093176;28;20075;-34
2022/07/02 01:34:36;;;;;;;7.47;3.20;;;15.00;96.60;;;;;;5113404;28;20048;-34
2022/07/02 01:37:03;;;;;;;5.45;2.60;;;15.00;96.90;;;;;;5114449;28;20056;-34
2022/07/02 01:39:31;;;;;;;6.35;2.90;;;15.00;96.90;;;;;;5112161;28;20483;-33
2022/07/02 01:41:58;;;;;;;6.32;2.97;;;15.00;96.90;;;;;;5093255;28;20090;-33
2022/07/02 01:44:24;;;;;;;5.45;2.70;;;15.00;97.20;;;;;;5093359;28;20122;-34
2022/07/02 01:46:51;;;;;;;6.43;3.22;;;15.00;97.10;;;;;;5094222;28;20083;-33
2022/07/02 01:49:18;;;;;;;7.45;2.60;;;15.00;97.20;;;;;;5103860;28;20087;-34
2022/07/02 01:51:45;;;;;;;11.48;2.97;;;15.00;97.10;;;;;;5111672;27;20094;-34
2022/07/02 01:54:13;;;;;;;5.03;2.92;;;14.90;97.20;;;;;;5114398;28;20135;-33
2022/07/02 01:56:41;;;;;;;7.13;3.17;;;14.90;97.40;;;;;;5114178;28;20051;-33
2022/07/02 01:59:08;;;;;;;4.55;2.42;;;14.90;97.40;;;;;;5114117;28;20138;-34
2022/07/02 02:01:35;;;;;;;8.45;3.25;;;14.90;97.20;;;;;;5111071;28;20134;-34
2022/07/02 02:04:02;;;;;;;9.25;4.13;;;14.80;97.50;;;;;;5108497;28;20483;-33
2022/07/02 02:06:29;;;;;;;5.90;2.70;;;14.80;97.90;;;;;;5112870;28;20044;-33
2022/07/02 02:08:55;;;;;;;9.25;3.75;;;14.80;97.70;;;;;;5114114;28;20090;-34
2022/07/02 02:11:22;;;;;;;10.05;4.15;;;14.80;98.00;;;;;;5112369;28;20475;-34
2022/07/02 02:13:50;;;;;;;8.30;3.58;;;14.80;98.40;;;;;;5112758;28;20486;-34
2022/07/02 02:16:17;;;;;;;9.60;3.95;;;14.70;98.80;;;;;;5113619;28;20585;-34
2022/07/02 02:18:44;;;;;;;7.57;3.60;;;14.60;99.00;;;;;;5103000;28;20461;-34
2022/07/02 02:21:10;;;;;;;8.32;3.80;;;14.60;98.90;;;;;;5107171;28;20538;-34
2022/07/02 02:23:38;;;;;;;4.97;2.92;;;14.60;98.80;;;;;;5109079;28;20364;-34
2022/07/02 02:26:05;;;;;;;9.32;3.53;;;14.50;98.90;;;;;;5092487;28;20471;-35
2022/07/02 02:28:32;;;;;;;9.50;4.68;;;14.50;98.90;;;;;;5092103;28;20217;-34
2022/07/02 02:31:00;;;;;;;12.25;4.10;;;14.60;99.30;;;;;;5093192;28;20131;-35
2022/07/02 02:33:27;;;;;;;6.65;4.03;;;14.50;99.70;;;;;;5092921;28;20139;-34
2022/07/02 02:35:53;;;;;;;7.93;4.50;;;14.50;99.70;;;;;;5125593;27;20167;-33
2022/07/02 02:38:20;;;;;;;9.15;4.03;;;14.50;99.90;;;;;;5093174;28;20121;-34
2022/07/02 02:40:47;;;;;;;7.53;4.10;;;14.40;99.90;;;;;;5092137;28;20131;-34
2022/07/02 02:43:14;;;;;;;5.63;3.22;;;14.40;99.90;;;;;;5092342;28;20092;-35
2022/07/02 02:45:40;;;;;;;7.03;3.83;;;14.40;99.80;;;;;;5091629;28;20066;-34
2022/07/02 02:48:08;;;;;;;9.02;4.47;;;14.40;99.80;;;;;;5101269;28;20075;-34
2022/07/02 02:50:35;;;;;;;9.38;4.05;;;14.30;99.90;;;;;;5112581;28;20139;-34
2022/07/02 02:53:02;;;;;;;8.57;3.80;;;14.40;99.90;;;;;;5111212;28;20047;-34
2022/07/02 02:55:29;;;;;;;8.05;4.78;;;14.40;99.90;;;;;;5112232;28;20130;-34
2022/07/02 02:57:56;;;;;;;8.60;5.10;;;14.30;99.90;;;;;;5105886;28;20131;-34
2022/07/02 03:00:22;;;;;;;10.07;4.57;;;14.30;99.90;;;;;;5092757;28;20131;-34
2022/07/02 03:02:49;;;;;;;8.48;4.22;;;14.30;99.90;;;;;;5091801;28;20384;-34
2022/07/02 03:05:17;;;;;;;7.93;4.05;;;14.30;99.90;;;;;;5099021;28;20086;-33
2022/07/02 03:07:44;;;;;;;9.88;3.45;;;14.30;99.90;;;;;;5112185;28;20130;-34
2022/07/02 03:10:11;;;;;;;7.32;3.67;;;14.30;99.70;;;;;;5109960;28;20131;-34
2022/07/02 03:12:38;;;;;;;9.70;5.18;;;14.30;99.50;;;;;;5109516;28;20122;-35
2022/07/02 03:15:05;;;;;;;8.07;4.50;;;14.40;99.70;;;;;;5112701;28;20116;-34
2022/07/02 03:17:32;;;;;;;7.53;4.05;;;14.40;99.50;;;;;;5111631;28;20087;-34
2022/07/02 03:19:59;;;;;;;7.53;3.83;;;14.30;99.50;;;;;;5113090;28;20056;-34
2022/07/02 03:22:27;;;;;;;7.30;3.83;;;14.30;99.40;;;;;;5101044;28;20081;-34
2022/07/02 03:24:54;;;;;;;7.57;4.65;;;14.30;99.40;;;;;;5092492;28;20139;-35
2022/07/02 03:27:21;;;;;;;7.78;4.70;;;14.30;99.50;;;;;;5091489;28;20139;-35
2022/07/02 03:29:47;;;;;;;6.93;4.32;;;14.30;99.70;;;;;;5091617;28;20139;-33
2022/07/02 03:32:14;;;;;;;8.57;3.80;;;14.30;99.70;;;;;;5092352;28;20140;-33
2022/07/02 03:34:41;;;;;;;5.63;3.88;;;14.30;99.40;;;;;;5102398;28;20399;-34
2022/07/02 03:37:08;;;;;;;10.95;5.20;;;14.30;99.40;;;;;;5111535;28;20495;-33
2022/07/02 03:39:36;;;;;;;8.50;4.50;;;14.20;99.80;;;;;;5111902;28;20457;-34
2022/07/02 03:42:03;;;;;;;9.00;5.15;;;14.20;99.80;;;;;;5110361;28;20477;-35
2022/07/02 03:44:30;;;;;;;6.55;4.20;;;14.20;99.90;;;;;;5111621;28;20126;-34
2022/07/02 03:46:57;;;;;;;8.57;5.72;;;14.20;99.80;;;;;;5097182;28;20080;-34
2022/07/02 03:49:23;;;;;;;9.60;5.95;;;14.20;99.90;;;;;;5102121;28;20443;-34
2022/07/02 03:51:50;;;;;;;5.85;4.13;;;14.20;99.90;;;;;;5113003;28;20482;-33
2022/07/02 03:54:17;;;;;;;9.85;4.93;;;14.10;99.90;;;;;;5110054;28;20075;-34
2022/07/02 03:56:45;;;;;;;9.38;5.97;;;14.20;99.90;;;;;;5116324;28;20454;-34
2022/07/02 03:59:12;;;;;;;10.57;6.45;;;14.10;99.90;;;;;;5102097;28;20488;-34
2022/07/02 04:01:38;;;;;;;7.85;5.07;;;14.10;99.90;;;;;;5116417;28;20126;-34
2022/07/02 04:04:06;;;;;;;9.88;5.80;;;14.10;99.90;;;;;;5116136;28;20082;-33
2022/07/02 04:06:36;;;;;;;7.72;5.03;;;14.10;99.90;;;;;;5116529;28;20134;-34
2022/07/02 04:09:03;;;;;;;7.20;5.70;;;14.10;99.90;;;;;;5112735;28;20085;-34
2022/07/02 04:11:30;;;;;;;13.50;6.63;;;14.10;99.90;;;;;;5094688;28;20084;-34
2022/07/02 04:13:58;;;;;;;10.52;6.15;;;14.10;99.90;;;;;;5094898;28;20535;-34
2022/07/02 04:16:25;;;;;;;10.48;6.53;;;14.10;99.90;;;;;;5095809;28;20595;-34
2022/07/02 04:18:51;;;;;;;7.38;4.68;;;14.00;99.90;;;;;;5094910;28;20047;-34
2022/07/02 04:21:18;;;;;;;9.40;5.97;;;14.00;99.90;;;;;;5095865;28;20039;-35
2022/07/02 04:23:45;;;;;;;10.68;6.20;;;14.00;99.90;;;;;;5099922;28;20090;-34
2022/07/02 04:26:12;;;;;;;13.95;5.95;;;14.00;99.90;;;;;;5115219;28;20082;-34
2022/07/02 04:28:38;;;;;;;11.52;6.32;;;14.00;99.90;;;;;;5114837;28;20096;-34
2022/07/02 04:31:07;;;;;;;9.68;5.93;;;14.00;99.90;;;;;;5114486;28;20091;-33
2022/07/02 04:33:33;;;;;;;9.20;5.85;;;14.00;99.90;;;;;;5115021;28;20134;-35
2022/07/02 04:36:00;;;;;;;12.18;6.95;;;14.10;99.90;;;;;;5115953;28;20051;-34
2022/07/02 04:38:27;;;;;;;11.50;7.22;;;14.10;99.90;;;;;;5114874;28;20473;-34
2022/07/02 04:40:54;;;;;;;10.75;5.95;;;14.10;99.90;;;;;;5114834;28;20102;-34
2022/07/02 04:43:20;;;;;;;12.57;6.50;;;14.10;99.90;;;;;;5114623;27;20079;-35
2022/07/02 04:45:47;;;;;;;13.45;6.47;;;14.10;99.90;;;;;;5095189;28;20075;-34
2022/07/02 04:48:15;;;;;;;7.90;5.88;;;14.10;99.90;;;;;;5095976;28;20106;-34
2022/07/02 04:50:42;;;;;;;9.45;6.03;;;14.10;99.90;;;;;;5113362;28;20047;-35
2022/07/02 04:53:09;;;;;;;9.48;6.07;;;14.10;99.90;;;;;;5115558;28;20142;-34
2022/07/02 04:55:35;;;;;;;11.43;7.25;;;14.20;99.90;;;;;;5113040;28;20097;-35
2022/07/02 04:58:02;;;;;;;13.77;6.78;;;14.20;99.90;;;;;;5115407;28;20135;-34
2022/07/02 05:00:29;;;;;;;9.20;6.50;;;14.20;99.90;;;;;;5112096;28;20048;-34
2022/07/02 05:02:56;;;;;;;9.60;6.85;;;14.20;99.90;;;;;;5115415;28;20130;-34
2022/07/02 05:05:25;;;;;;;10.40;6.30;;;14.20;99.90;;;;;;5114309;28;20047;-34
2022/07/02 05:07:51;;;;;;;13.23;6.22;;;14.30;99.90;;;;;;5097827;27;20044;-34
2022/07/02 05:10:18;;;;;;;13.05;6.50;;;14.30;99.90;;;;;;5114914;28;20491;-35
2022/07/02 05:12:45;;;;;;;11.38;6.07;;;14.40;99.90;;;;;;5113870;28;20040;-34
2022/07/02 05:15:12;;;;;;;14.27;6.88;;;14.50;99.90;;;;;;5113880;28;20083;-34
2022/07/02 05:17:38;;;;;;;9.98;6.20;;;14.50;99.90;;;;;;5099397;28;20158;-34
2022/07/02 05:20:06;;;;;;;9.10;6.00;;;14.50;99.90;;;;;;5095213;28;20127;-34
2022/07/02 05:22:34;;;;;;;15.18;6.68;;;14.60;99.90;;;;;;5114833;28;20046;-35
2022/07/02 05:25:01;;;;;;;11.40;6.03;;;14.70;99.90;;;;;;5114648;28;20055;-34
2022/07/02 05:27:28;;;;;;;10.60;5.82;;;14.80;99.90;;;;;;5113724;28;20270;-34
2022/07/02 05:29:54;;;;;;;10.65;5.90;;;14.90;99.90;;;;;;5113540;28;20051;-35
2022/07/02 05:32:21;;;;;;;8.98;5.22;;;15.00;99.90;;;;;;5113609;28;20102;-34
2022/07/02 05:34:48;;;;;;;9.10;5.25;;;15.10;99.90;;;;;;5113393;28;20503;-34
2022/07/02 05:37:15;;;;;;;9.57;5.70;;;15.30;99.90;;;;;;5112768;28;20074;-34
2022/07/02 05:39:43;;;;;;;11.90;4.97;;;15.30;99.90;;;;;;5114464;28;20091;-34
2022/07/02 05:42:10;;;;;;;11.57;5.40;;;15.40;99.90;;;;;;5108067;28;20075;-34
2022/07/02 05:44:36;;;;;;;13.75;5.10;;;15.50;99.90;;;;;;5094383;28;20059;-34
2022/07/02 05:47:04;;;;;;;8.23;5.00;;;15.50;99.90;;;;;;5093138;28;20046;-34
2022/07/02 05:49:30;;;;;;;9.85;5.15;;;15.70;99.90;;;;;;5104870;28;20446;-34
2022/07/02 05:51:57;;;;;;;8.68;5.30;;;15.80;99.90;;;;;;5114470;28;20467;-34
2022/07/02 05:54:24;;;;;;;8.60;4.90;;;15.90;99.90;;;;;;5111741;28;20100;-34
2022/07/02 05:56:52;;;;;;;11.80;4.35;;;16.00;99.90;;;;;;5114275;28;20083;-34
2022/07/02 05:59:19;;;;;;;14.35;5.05;;;16.20;99.90;;;;;;5109293;28;20044;-34
2022/07/02 06:01:48;;;;;;;6.75;3.70;;;16.30;99.90;;;;;;5104654;28;20130;-34
2022/07/02 06:04:15;;;;;;;8.32;4.10;;;16.50;99.80;;;;;;5094212;27;20083;-34
2022/07/02 06:09:26;;;;;;;8.68;3.03;;;16.60;98.70;;;;;;5100600;28;20043;-34
2022/07/02 06:11:54;;;;;;;8.00;3.20;;;16.80;98.60;;;;;;5106088;28;20135;-34
2022/07/02 06:14:21;;;;;;;7.10;2.97;;;16.90;98.40;;;;;;5093460;28;20139;-34
2022/07/02 06:16:48;;;;;;;6.50;3.13;;;17.00;98.00;;;;;;5092088;27;20052;-34
2022/07/02 06:19:14;;;;;;;7.78;2.67;;;17.10;97.30;;;;;;5097530;28;20126;-34
2022/07/02 06:21:41;;;;;;;8.55;2.47;;;17.20;97.00;;;;;;5112088;28;20047;-34
2022/07/02 06:24:09;;;;;;;6.25;2.78;;;17.30;96.90;;;;;;5112767;28;20422;-34
2022/07/02 06:26:35;;;;;;;6.82;2.50;;;17.40;96.90;;;;;;5113616;28;20083;-33
2022/07/02 06:29:04;;;;;;;4.10;2.33;;;17.50;96.40;;;;;;5112552;27;20468;-35
2022/07/02 06:31:31;;;;;;;7.57;2.20;;;17.60;96.00;;;;;;5113328;28;20051;-35
2022/07/02 06:33:58;;;;;;;6.00;2.08;;;17.80;95.70;;;;;;5113277;28;20047;-34
2022/07/02 06:36:25;;;;;;;4.57;2.30;;;17.90;95.50;;;;;;5095306;28;20056;-34
2022/07/02 06:38:51;;;;;;;4.97;2.35;;;18.00;95.20;;;;;;5094099;28;20395;-34
2022/07/02 06:43:59;;;;;;;7.45;2.15;;;18.20;94.50;;;;;;5037403;28;20060;-34
2022/07/02 06:46:27;;;;;;;4.38;1.70;;;18.20;94.40;;;;;;5094240;28;20131;-34
2022/07/02 06:48:54;;;;;;;5.30;1.90;;;18.30;94.10;;;;;;5101134;27;20687;-34
2022/07/02 06:51:21;;;;;;;5.13;2.00;;;18.40;94.00;;;;;;5108377;28;20048;-34
2022/07/02 06:53:47;;;;;;;4.95;1.73;;;18.60;93.50;;;;;;5111726;28;20052;-34
2022/07/02 06:56:14;;;;;;;4.25;1.80;;;18.60;93.20;;;;;;5098957;28;20082;-35
2022/07/02 06:58:41;;;;;;;10.27;2.47;;;18.70;93.10;;;;;;5112367;28;20130;-35
2022/07/02 07:01:08;;;;;;;5.82;1.63;;;18.70;92.90;;;;;;5099642;27;20138;-35
2022/07/02 07:03:36;;;;;;;5.70;2.00;;;18.80;92.50;;;;;;5111724;28;20151;-34
2022/07/02 07:06:02;;;;;;;5.75;1.88;;;19.00;92.20;;;;;;5110208;28;20134;-35
2022/07/02 07:08:29;;;;;;;6.82;1.92;;;19.10;92.40;;;;;;5092475;28;20134;-34
2022/07/02 07:10:56;;;;;;;3.88;1.60;;;19.30;92.00;;;;;;5092591;28;20090;-34
2022/07/02 07:13:23;;;;;;;3.53;1.50;;;19.40;91.60;;;;;;5097721;28;20047;-34
2022/07/02 07:15:50;;;;;;;5.03;1.80;;;19.60;91.60;;;;;;5098421;28;20062;-34
2022/07/02 07:18:17;;;;;;;6.88;1.60;;;19.70;91.20;;;;;;5125638;27;20052;-34
2022/07/02 07:20:47;;;;;;;5.10;1.35;;;19.80;91.10;;;;;;5092845;28;20129;-35
2022/07/02 07:23:14;;;;;;;6.15;1.50;;;20.00;90.50;;;;;;5105752;28;20051;-35
2022/07/02 07:25:40;;;;;;;3.53;1.05;;;20.10;90.40;;;;;;5099365;28;20128;-35
2022/07/02 07:28:07;;;;;;;5.25;1.67;;;20.20;90.00;;;;;;5091623;28;20142;-34
2022/07/02 07:30:34;;;;;;;4.07;1.27;;;20.30;89.50;;;;;;5103829;28;20083;-34
2022/07/02 07:33:01;;;;;;;5.10;1.92;;;20.40;89.20;;;;;;5111259;28;20403;-34
2022/07/02 07:35:27;;;;;;;6.05;1.30;;;20.60;87.90;;;;;;5098475;27;20133;-35
2022/07/02 07:37:59;;;;;;;2.00;1.17;;;20.70;88.00;;;;;;5106102;27;20087;-35
2022/07/02 07:40:26;;;;;;;;;;;20.70;85.60;;;;;;5117496;28;20130;-35
2022/07/02 07:42:52;;;;;;;3.35;1.20;;;20.70;84.90;;;;;;5108412;28;20018;-35
2022/07/02 07:45:19;;;;;;;4.38;1.17;;;20.80;85.70;;;;;;5096630;28;20135;-35
2022/07/02 07:47:46;;;;;;;4.78;1.23;;;20.90;85.10;;;;;;5109911;28;20044;-34
2022/07/02 07:50:13;;;;;;;2.85;1.17;;;21.00;84.60;;;;;;5109712;27;20144;-35
2022/07/02 07:52:39;;;;;;;3.22;1.50;;;21.10;84.10;;;;;;5111339;28;20043;-35
2022/07/02 07:55:08;;;;;;;2.90;1.20;;;21.30;83.80;;;;;;5108399;28;20444;-35
2022/07/02 07:57:35;;;;;;;5.13;1.30;;;21.40;83.30;;;;;;5113910;28;20154;-35
2022/07/02 08:00:03;;;;;;;2.92;1.23;;;21.50;83.40;;;;;;5100424;28;20503;-35
2022/07/02 08:02:29;;;;;;;5.57;1.30;;;21.60;81.90;;;;;;5110115;28;20448;-35
2022/07/02 08:04:56;;;;;;;4.90;1.00;;;21.60;82.40;;;;;;5110441;28;20134;-35
2022/07/02 08:07:23;;;;;;;3.53;1.33;;;21.70;83.30;;;;;;5113901;28;20466;-36
2022/07/02 08:09:52;;;;;;;4.68;1.15;;;21.90;81.60;;;;;;5113218;28;20065;-34
2022/07/02 08:12:21;;;;;;;3.55;1.27;;;22.00;81.20;;;;;;5097592;27;20060;-35
2022/07/02 08:14:48;;;;;;;6.05;1.10;;;22.10;81.00;;;;;;5104620;28;20120;-34
2022/07/02 08:17:18;;;;;;;4.35;1.15;;;22.20;80.20;;;;;;5105728;28;20056;-34
2022/07/02 08:19:44;;;;;;;5.53;1.55;;;22.40;79.60;;;;;;5112533;28;20071;-35
2022/07/02 08:22:11;;;;;;;3.40;1.23;;;22.40;79.20;;;;;;5114346;28;20130;-36
2022/07/02 08:24:38;;;;;;;6.30;2.53;;;22.50;78.50;;;;;;5111872;28;20522;-36
2022/07/02 08:27:05;;;;;;;2.95;1.00;;;22.60;79.90;;;;;;5112824;28;20495;-36
2022/07/02 08:29:33;;;;;;;5.60;1.10;;;22.60;77.80;;;;;;5108152;28;20123;-34
2022/07/02 08:32:00;;;;;;;3.72;1.08;;;22.70;77.40;;;;;;5095076;28;20050;-35
2022/07/02 08:34:27;;;;;;;1.98;0.90;;;22.70;77.00;;;;;;5103044;28;20125;-35
2022/07/02 08:36:53;;;;;;;4.00;1.30;;;22.90;76.40;;;;;;5102495;28;20138;-34
2022/07/02 08:39:20;;;;;;;4.72;1.42;;;23.00;75.60;;;;;;5102691;28;20127;-35
2022/07/02 08:41:47;;;;;;;2.33;0.90;;;23.00;75.20;;;;;;5094811;28;20097;-36
2022/07/02 08:44:14;;;;;;;2.92;0.80;;;23.10;75.00;;;;;;5099146;28;20560;-35
2022/07/02 08:46:42;;;;;;;3.92;0.93;;;23.20;73.60;;;;;;5114998;28;20131;-36
2022/07/02 08:49:09;;;;;;;2.08;0.82;;;23.20;73.70;;;;;;5111311;28;20056;-35
2022/07/02 08:51:35;;;;;;;2.30;0.70;;;23.40;74.80;;;;;;5097021;28;20048;-35
2022/07/02 08:57:33;;;;;;;2.78;0.75;;;23.70;71.50;;;;;;5101209;28;20048;-34
2022/07/02 09:00:00;;;;;;;3.88;1.00;;;23.80;71.50;;;;;;5107978;27;20436;-33
2022/07/02 09:02:28;;;;;;;3.03;1.02;;;23.90;70.90;;;;;;5093916;28;20048;-34
2022/07/02 09:04:55;;;;;;;2.13;1.00;;;24.00;70.60;;;;;;5103600;28;20050;-35
2022/07/02 09:07:22;;;;;;;2.15;0.80;;;24.10;70.20;;;;;;5095638;28;20040;-34
2022/07/02 09:09:48;;;;;;;1.55;0.70;;;24.20;69.80;;;;;;5094785;28;20083;-35
2022/07/02 09:12:15;;;;;;;3.40;0.90;;;24.30;67.90;;;;;;5095023;28;20465;-34
2022/07/02 09:14:43;;;;;;;2.50;0.98;;;24.40;67.20;;;;;;5105191;28;20135;-34
2022/07/02 09:17:11;;;;;;;1.77;0.63;;;24.50;67.10;;;;;;5113944;28;20047;-34
2022/07/02 09:19:39;;;;;;;3.90;1.00;;;24.60;67.50;;;;;;5113219;28;20050;-34
2022/07/02 09:22:07;;;;;;;6.80;0.80;;;24.70;66.60;;;;;;5113803;28;20134;-34
2022/07/02 09:24:35;;;;;;;2.58;0.60;;;24.90;67.00;;;;;;5100948;28;20063;-34
2022/07/02 09:27:02;;;;;;;2.92;1.00;;;24.90;66.40;;;;;;5114585;28;20052;-34
2022/07/02 09:29:29;;;;;;;2.78;0.65;;;25.00;65.50;;;;;;5113187;28;20087;-34
2022/07/02 09:31:56;;;;;;;1.05;0.57;;;25.10;64.50;;;;;;5113594;28;20455;-35
2022/07/02 09:34:27;;;;;;;2.85;0.60;;;25.20;63.60;;;;;;5112141;28;20513;-34
2022/07/02 09:36:55;;;;;;;3.65;0.55;;;25.40;62.80;;;;;;5104214;28;20055;-34
2022/07/02 09:39:31;;;;;;;2.05;0.52;;;25.40;62.20;;;;;;5114369;28;20090;-34
2022/07/02 09:41:58;;;;;;;1.85;0.40;;;25.50;61.40;;;;;;5113542;28;20545;-34
2022/07/02 09:44:26;;;;;;;1.52;0.57;;;25.50;59.90;;;;;;5095830;27;20140;-35
2022/07/02 09:46:53;;;;;;;1.45;0.55;;;25.50;59.90;;;;;;5107331;27;20054;-34
2022/07/02 09:49:19;;;;;;;2.78;0.43;;;25.50;61.00;;;;;;5113309;28;20051;-34
2022/07/02 09:51:48;;;;;;;2.45;0.80;;;25.50;61.40;;;;;;5111177;28;20086;-35
2022/07/02 09:54:19;;;;;;;3.90;0.70;;;25.60;62.20;;;;;;5096238;28;20134;-34
2022/07/02 09:56:51;;;;;;;2.35;0.70;;;25.70;60.20;;;;;;5097905;28;20049;-34
2022/07/02 09:59:18;;;;;;;2.33;0.60;;;25.70;60.60;;;;;;5114473;28;20130;-35
2022/07/02 10:01:45;;;;;;;4.15;0.70;;;25.70;59.70;;;;;;5100240;28;20056;-35
2022/07/02 10:04:11;;;;;;;1.15;0.40;;;25.80;58.80;;;;;;5103025;28;20044;-34
2022/07/02 10:06:38;;;;;;;3.15;0.50;;;25.80;58.60;;;;;;5109990;27;20499;-34
2022/07/02 10:09:05;;;;;;;2.65;0.50;;;25.80;57.90;;;;;;5102120;28;20140;-34
2022/07/02 10:11:33;;;;;;;2.22;0.60;;;25.80;57.80;;;;;;5113576;28;20054;-34
2022/07/02 10:14:00;;;;;;;0.90;0.40;;;25.90;57.40;;;;;;5112367;28;20142;-34
2022/07/02 10:16:27;;;;;;;1.30;0.30;;;25.90;57.50;;;;;;5112241;28;20086;-34
2022/07/02 10:18:54;;;;;;;3.28;0.20;;;26.10;56.40;;;;;;5112899;28;20071;-34
2022/07/02 10:21:21;;;;;;;1.27;0.60;;;26.10;55.50;;;;;;5112316;28;20142;-34
2022/07/02 10:23:48;;;;;;;1.77;0.70;;;26.20;55.40;;;;;;5099371;28;20135;-34
2022/07/02 10:26:15;;;;;;;1.92;0.60;;;26.20;55.50;;;;;;5094713;28;20095;-34
2022/07/02 10:28:43;;;;;;;3.13;0.50;;;26.40;54.90;;;;;;5105192;28;20075;-34
2022/07/02 10:31:14;;;;;;;1.40;0.60;;;26.50;54.00;;;;;;5094767;28;20385;-33
2022/07/02 10:33:44;;;;;;;3.20;0.50;;;26.70;53.60;;;;;;5133345;27;20127;-34
2022/07/02 10:36:13;;;;;;;1.88;0.40;;;26.80;54.10;;;;;;5104466;28;20081;-34
2022/07/02 10:38:40;;;;;;;3.00;0.55;;;27.00;54.50;;;;;;5112197;28;20113;-35
2022/07/02 10:41:07;;;;;;;2.50;0.70;;;27.00;53.30;;;;;;5111924;28;20491;-35
2022/07/02 10:43:34;;;;;;;2.13;0.68;;;27.00;53.30;;;;;;5097638;28;20403;-35
2022/07/02 10:46:06;;;;;;;1.27;0.50;;;27.10;53.20;;;;;;5102006;28;20474;-34
2022/07/02 10:48:34;;;;;;;1.80;0.50;;;27.20;52.00;;;;;;5105993;28;20499;-35
2022/07/02 10:51:00;;;;;;;1.27;0.40;;;27.10;51.80;;;;;;5112730;28;20134;-34
2022/07/02 10:53:28;;;;;;;1.13;0.50;;;27.10;51.50;;;;;;5106400;28;20075;-34
2022/07/02 10:55:59;;;;;;;1.35;0.50;;;27.00;50.90;;;;;;5098752;28;20131;-35
2022/07/02 10:58:27;;;;;;;2.38;0.50;;;27.00;51.90;;;;;;5104864;28;20043;-34
2022/07/02 11:00:53;;;;;;;3.40;0.73;;;26.80;51.40;;;;;;5108618;28;20228;-36
2022/07/02 11:03:23;;;;;;;2.03;0.60;;;26.50;51.50;;;;;;5111951;28;20059;-34
2022/07/02 11:05:54;;;;;;;1.42;0.50;;;26.40;52.30;;;;;;5112246;28;20127;-34
2022/07/02 11:08:50;;;;;;;1.65;0.50;;;26.20;52.30;;;;;;5112541;28;20052;-34
2022/07/02 11:11:19;;;;;;;0.70;0.50;;;26.10;54.00;;;;;;5108850;28;20143;-34
2022/07/02 11:13:48;;;;;;;2.47;0.90;;;26.20;53.20;;;;;;5112088;28;20086;-35
2022/07/02 11:16:37;;;;;;;2.92;0.45;;;26.40;53.10;;;;;;5110781;28;20054;-35
2022/07/02 11:19:06;;;;;;;2.05;0.60;;;26.50;53.50;;;;;;5096093;28;20624;-35
2022/07/02 11:21:33;;;;;;;0.93;0.47;;;26.50;52.60;;;;;;5096211;28;20080;-34
2022/07/02 11:23:59;;;;;;;2.75;0.80;;;26.50;52.90;;;;;;5106401;28;20127;-34
2022/07/02 11:26:27;;;;;;;4.63;1.25;;;26.40;52.30;;;;;;5112978;28;20392;-34
2022/07/02 11:28:54;;;;;;;3.88;1.15;;;26.10;52.70;;;;;;5111442;28;20132;-34
2022/07/02 11:31:22;;;;;;;2.40;0.60;;;25.90;53.70;;;;;;5110070;28;20147;-34
2022/07/02 11:33:50;;;;;;;1.48;0.45;;;25.80;53.90;;;;;;5112839;28;20135;-35
2022/07/02 11:36:18;;;;;;;1.42;0.50;;;25.80;54.50;;;;;;5113078;28;20108;-35
2022/07/02 11:38:46;;;;;;;3.22;0.63;;;25.90;53.70;;;;;;5110428;28;20449;-34
2022/07/02 11:41:20;;;;;;;2.33;0.70;;;26.20;53.80;;;;;;5106085;28;20082;-35
2022/07/02 11:43:47;;;;;;;3.30;1.13;;;26.30;54.00;;;;;;5109663;28;20096;-34
2022/07/02 11:46:17;;;;;;;1.60;0.50;;;26.40;53.50;;;;;;5109444;28;20101;-33
2022/07/02 11:48:44;;;;;;;2.77;0.60;;;26.40;53.30;;;;;;5107097;28;20043;-34
2022/07/02 11:51:11;;;;;;;5.45;0.90;;;26.50;53.60;;;;;;5112850;28;20418;-35
2022/07/02 11:53:39;;;;;;;4.82;0.75;;;26.70;53.10;;;;;;5111868;28;20053;-34
2022/07/02 11:56:07;;;;;;;5.03;0.70;;;26.70;52.70;;;;;;5112807;28;20484;-33
2022/07/02 11:58:43;;;;;;;2.35;0.55;;;26.50;52.70;;;;;;5112548;28;20052;-34
2022/07/02 12:01:24;;;;;;;2.78;0.70;;;26.50;53.30;;;;;;5112924;28;20050;-34
2022/07/02 12:03:51;;;;;;;3.08;0.85;;;26.80;52.90;;;;;;5111380;28;20060;-33
2022/07/02 12:06:18;;;;;;;2.10;0.60;;;27.00;53.60;;;;;;5100807;28;20082;-34
2022/07/02 12:08:46;;;;;;;1.80;0.57;;;27.20;53.00;;;;;;5112598;28;20456;-34
2022/07/02 12:11:17;;;;;;;2.72;0.88;;;27.30;52.40;;;;;;5111260;28;20108;-33
2022/07/02 12:13:44;;;;;;;2.40;0.60;;;27.40;52.10;;;;;;5094225;28;20059;-33
2022/07/02 12:16:11;;;;;;;2.33;0.60;;;27.50;52.20;;;;;;5099081;28;20055;-34
2022/07/02 12:18:38;;;;;;;2.22;0.90;;;27.50;51.60;;;;;;5094905;27;20127;-33
2022/07/02 12:21:12;;;;;;;3.80;0.82;;;27.30;51.40;;;;;;5095713;28;20105;-34
2022/07/02 12:23:50;;;;;;;2.97;0.60;;;27.30;51.50;;;;;;5095656;28;20088;-33
2022/07/02 12:26:22;;;;;;;1.83;0.60;;;27.50;49.80;;;;;;5094912;28;20052;-33
2022/07/02 12:31:52;;;;;;;3.72;0.90;;;27.50;51.00;;;;;;5115997;28;20048;-34
2022/07/02 12:34:20;;;;;;;2.17;0.73;;;27.30;50.80;;;;;;5112062;27;20039;-33
2022/07/02 12:36:52;;;;;;;2.72;0.70;;;27.30;50.90;;;;;;5112433;28;20184;-34
2022/07/02 12:39:21;;;;;;;3.15;0.70;;;27.30;51.20;;;;;;5115890;28;20051;-34
2022/07/02 12:41:48;;;;;;;1.98;0.57;;;27.40;51.80;;;;;;5113479;28;20082;-34
2022/07/02 12:44:20;;;;;;;1.63;0.65;;;27.50;52.50;;;;;;5114468;28;20104;-34
2022/07/02 12:46:48;;;;;;;1.75;0.70;;;27.60;51.60;;;;;;5115502;28;20047;-34
2022/07/02 12:49:18;;;;;;;5.05;1.10;;;27.60;51.80;;;;;;5115860;28;20487;-33
2022/07/02 12:51:59;;;;;;;3.10;0.80;;;27.50;50.60;;;;;;5115532;28;20079;-35
2022/07/02 12:54:37;;;;;;;3.55;0.70;;;27.30;52.10;;;;;;5114664;28;20075;-34
2022/07/02 12:57:23;;;;;;;3.38;0.70;;;27.40;52.90;;;;;;5115449;28;20044;-35
2022/07/02 12:59:52;;;;;;;2.03;0.65;;;27.60;51.60;;;;;;5114299;28;20059;-33
2022/07/02 13:02:22;;;;;;;3.83;0.77;;;27.50;50.80;;;;;;5100260;28;20044;-34